createdAt,value
2024-04-13T00:00:42.089Z,13.47
2024-04-13T00:03:31.786Z,13.47
2024-04-13T00:05:59.533Z,13.46
2024-04-13T00:08:27.241Z,13.45
2024-04-13T00:10:54.860Z,13.47
2024-04-13T00:13:22.442Z,13.52
2024-04-13T00:15:59.218Z,13.60
2024-04-13T00:18:27.173Z,13.64
2024-04-13T00:20:54.808Z,13.66
2024-04-13T00:23:25.674Z,13.65
2024-04-13T00:25:54.478Z,13.65
2024-04-13T00:28:22.851Z,13.63
2024-04-13T00:30:50.694Z,13.63
2024-04-13T00:33:20.081Z,13.60
2024-04-13T00:35:47.724Z,13.59
2024-04-13T00:38:15.418Z,13.60
2024-04-13T00:40:43.288Z,13.63
2024-04-13T00:43:11.918Z,13.66
2024-04-13T00:45:46.222Z,13.71
2024-04-13T00:48:17.860Z,13.74
2024-04-13T00:50:48.009Z,13.76
2024-04-13T00:53:17.481Z,13.79
2024-04-13T00:55:45.643Z,13.85
2024-04-13T00:58:13.528Z,13.93
2024-04-13T01:00:42.350Z,14.04
2024-04-13T01:03:10.220Z,14.15
2024-04-13T01:05:39.625Z,14.28
2024-04-13T01:08:07.271Z,14.36
2024-04-13T01:10:34.882Z,14.41
2024-04-13T01:13:02.570Z,14.47
2024-04-13T01:15:30.294Z,14.49
2024-04-13T01:17:58.027Z,14.51
2024-04-13T01:20:26.033Z,14.51
2024-04-13T01:22:54.235Z,14.51
2024-04-13T01:25:23.020Z,14.43
2024-04-13T01:27:50.711Z,14.39
2024-04-13T01:30:19.040Z,14.38
2024-04-13T01:32:46.837Z,14.37
2024-04-13T01:35:15.028Z,14.36
2024-04-13T01:37:43.559Z,14.32
2024-04-13T01:40:11.847Z,14.30
2024-04-13T01:42:46.767Z,14.31
2024-04-13T01:45:15.005Z,14.31
2024-04-13T01:47:42.863Z,14.31
2024-04-13T01:50:12.265Z,14.35
2024-04-13T01:52:40.053Z,14.41
2024-04-13T01:55:08.367Z,14.46
2024-04-13T01:57:36.126Z,14.48
2024-04-13T02:00:04.407Z,14.49
2024-04-13T02:02:32.497Z,14.48
2024-04-13T02:05:00.149Z,14.43
2024-04-13T02:07:30.306Z,14.40
2024-04-13T02:09:58.136Z,14.35
2024-04-13T02:12:26.844Z,14.32
2024-04-13T02:14:55.840Z,14.29
2024-04-13T02:17:23.639Z,14.27
2024-04-13T02:19:51.368Z,14.24
2024-04-13T02:22:19.834Z,14.19
2024-04-13T02:24:47.859Z,14.13
2024-04-13T02:27:15.600Z,14.08
2024-04-13T02:29:44.519Z,13.99
2024-04-13T02:32:12.344Z,13.93
2024-04-13T02:34:40.938Z,13.86
2024-04-13T02:37:08.534Z,13.82
2024-04-13T02:39:36.208Z,13.80
2024-04-13T02:42:04.452Z,13.79
2024-04-13T02:44:32.152Z,13.79
2024-04-13T02:46:59.872Z,13.76
2024-04-13T02:49:28.271Z,13.73
2024-04-13T02:51:55.871Z,13.70
2024-04-13T02:54:23.675Z,13.68
2024-04-13T02:56:52.642Z,13.66
2024-04-13T02:59:21.220Z,13.64
2024-04-13T03:01:48.958Z,13.56
2024-04-13T03:04:17.743Z,13.51
2024-04-13T03:06:45.903Z,13.47
2024-04-13T03:09:14.038Z,13.45
2024-04-13T03:11:41.679Z,13.45
2024-04-13T03:14:09.360Z,13.43
2024-04-13T03:16:37.105Z,13.43
2024-04-13T03:19:04.758Z,13.44
2024-04-13T03:21:36.093Z,13.47
2024-04-13T03:24:05.109Z,13.51
2024-04-13T03:26:33.022Z,13.52
2024-04-13T03:29:01.358Z,13.49
2024-04-13T03:31:29.039Z,13.51
2024-04-13T03:33:59.916Z,13.51
2024-04-13T03:36:28.305Z,13.52
2024-04-13T03:38:56.884Z,13.50
2024-04-13T03:41:24.550Z,13.50
2024-04-13T03:43:52.258Z,13.47
2024-04-13T03:46:19.969Z,13.44
2024-04-13T03:48:48.225Z,13.44
2024-04-13T03:51:16.031Z,13.45
2024-04-13T03:53:43.744Z,13.44
2024-04-13T03:56:11.461Z,13.45
2024-04-13T03:58:39.572Z,13.47
2024-04-13T04:01:07.328Z,13.47
2024-04-13T04:03:35.287Z,13.47
2024-04-13T04:06:03.131Z,13.44
2024-04-13T04:08:30.726Z,13.44
2024-04-13T04:10:58.375Z,13.46
2024-04-13T04:13:26.022Z,13.46
2024-04-13T04:15:53.836Z,13.47
2024-04-13T04:18:21.895Z,13.48
2024-04-13T04:20:49.621Z,13.47
2024-04-13T04:23:17.191Z,13.40
2024-04-13T04:25:45.852Z,13.39
2024-04-13T04:28:13.591Z,13.47
2024-04-13T04:30:41.403Z,13.54
2024-04-13T04:33:09.170Z,13.57
2024-04-13T04:35:38.307Z,13.58
2024-04-13T04:38:05.909Z,13.57
2024-04-13T04:40:35.402Z,13.57
2024-04-13T04:43:03.072Z,13.58
2024-04-13T04:45:30.757Z,13.57
2024-04-13T04:47:59.023Z,13.58
2024-04-13T04:50:27.650Z,13.60
2024-04-13T04:52:55.358Z,13.63
2024-04-13T04:55:23.009Z,13.66
2024-04-13T04:57:50.927Z,13.73
2024-04-13T05:00:19.073Z,13.84
2024-04-13T05:02:46.974Z,13.95
2024-04-13T05:05:16.361Z,13.98
2024-04-13T05:07:44.029Z,14.07
2024-04-13T05:10:12.172Z,14.10
2024-04-13T05:12:39.918Z,14.09
2024-04-13T05:15:07.926Z,14.11
2024-04-13T05:17:35.701Z,14.16
2024-04-13T05:20:04.152Z,14.23
2024-04-13T05:22:31.878Z,14.33
2024-04-13T05:24:59.510Z,14.42
2024-04-13T05:27:27.228Z,14.55
2024-04-13T05:29:55.457Z,14.57
2024-04-13T05:32:23.740Z,14.66
2024-04-13T05:34:51.808Z,14.70
2024-04-13T05:37:19.499Z,14.76
2024-04-13T05:39:47.338Z,14.80
2024-04-13T05:42:15.004Z,14.91
2024-04-13T05:44:42.655Z,14.91
2024-04-13T05:47:10.260Z,14.91
2024-04-13T05:49:37.911Z,14.99
2024-04-13T05:52:06.004Z,15.07
2024-04-13T05:54:33.799Z,15.14
2024-04-13T05:57:01.889Z,15.14
2024-04-13T05:59:29.636Z,15.14
2024-04-13T06:01:58.867Z,15.27
2024-04-13T06:04:26.644Z,15.31
2024-04-13T06:06:54.417Z,15.30
2024-04-13T06:09:22.217Z,15.30
2024-04-13T06:11:50.255Z,15.29
2024-04-13T06:14:17.836Z,15.34
2024-04-13T06:16:48.571Z,15.31
2024-04-13T06:19:16.259Z,15.37
2024-04-13T06:21:44.209Z,15.44
2024-04-13T06:24:12.767Z,15.49
2024-04-13T06:26:40.827Z,15.57
2024-04-13T06:29:08.509Z,15.67
2024-04-13T06:31:36.383Z,15.80
2024-04-13T06:34:04.434Z,15.95
2024-04-13T06:36:32.209Z,16.05
2024-04-13T06:38:59.873Z,16.24
2024-04-13T06:41:27.559Z,16.39
2024-04-13T06:43:56.520Z,16.53
2024-04-13T06:46:24.138Z,16.64
2024-04-13T06:48:51.831Z,16.81
2024-04-13T06:51:19.542Z,16.94
2024-04-13T06:53:47.620Z,16.88
2024-04-13T06:56:15.985Z,16.82
2024-04-13T06:58:44.680Z,16.85
2024-04-13T07:01:12.570Z,16.95
2024-04-13T07:03:41.966Z,17.08
2024-04-13T07:06:09.887Z,17.20
2024-04-13T07:08:44.005Z,17.33
2024-04-13T07:11:12.599Z,17.41
2024-04-13T07:13:40.231Z,17.50
2024-04-13T07:16:08.186Z,17.57
2024-04-13T07:18:36.276Z,17.65
2024-04-13T07:21:04.088Z,17.78
2024-04-13T07:23:31.804Z,17.85
2024-04-13T07:26:00.516Z,17.93
2024-04-13T07:28:29.267Z,18.08
2024-04-13T07:30:57.405Z,18.17
2024-04-13T07:33:25.332Z,18.34
2024-04-13T07:35:53.195Z,18.47
2024-04-13T07:38:21.598Z,18.64
2024-04-13T07:40:49.285Z,18.72
2024-04-13T07:43:16.969Z,18.75
2024-04-13T07:45:45.997Z,18.62
2024-04-13T07:48:13.858Z,18.74
2024-04-13T07:50:41.537Z,18.91
2024-04-13T07:53:09.867Z,19.04
2024-04-13T07:55:37.492Z,19.15
2024-04-13T07:58:05.188Z,19.18
2024-04-13T08:00:33.094Z,19.19
2024-04-13T08:03:02.070Z,19.17
2024-04-13T08:05:30.874Z,19.15
2024-04-13T08:07:58.494Z,19.15
2024-04-13T08:10:26.260Z,19.14
2024-04-13T08:12:53.871Z,19.27
2024-04-13T08:15:21.987Z,19.42
2024-04-13T08:17:49.772Z,19.50
2024-04-13T08:20:18.355Z,19.48
2024-04-13T08:22:46.186Z,19.32
2024-04-13T08:25:13.751Z,19.49
2024-04-13T08:27:41.434Z,19.47
2024-04-13T08:30:10.318Z,19.76
2024-04-13T08:32:39.016Z,19.92
2024-04-13T08:35:09.739Z,20.01
2024-04-13T08:37:37.607Z,19.91
2024-04-13T08:40:05.884Z,19.95
2024-04-13T08:42:37.176Z,20.19
2024-04-13T08:45:05.572Z,20.34
2024-04-13T08:47:34.100Z,20.42
2024-04-13T08:50:03.710Z,20.52
2024-04-13T08:52:31.815Z,20.43
2024-04-13T08:54:59.727Z,20.42
2024-04-13T08:57:30.485Z,20.51
2024-04-13T09:00:01.463Z,20.59
2024-04-13T09:02:36.487Z,20.56
2024-04-13T09:05:05.846Z,20.55
2024-04-13T09:07:34.867Z,20.71
2024-04-13T09:10:05.459Z,20.81
2024-04-13T09:12:33.146Z,20.84
2024-04-13T09:15:01.732Z,21.11
2024-04-13T09:17:32.716Z,21.15
2024-04-13T09:20:08.694Z,21.31
2024-04-13T09:22:37.871Z,21.38
2024-04-13T09:25:05.826Z,21.55
2024-04-13T09:27:35.642Z,21.53
2024-04-13T09:30:10.480Z,21.28
2024-04-13T09:32:38.580Z,21.41
2024-04-13T09:35:10.866Z,21.63
2024-04-13T09:37:39.571Z,21.84
2024-04-13T09:40:08.519Z,22.02
2024-04-13T09:42:36.667Z,22.00
2024-04-13T09:45:08.169Z,21.82
2024-04-13T09:47:36.019Z,21.57
2024-04-13T09:50:04.343Z,21.40
2024-04-13T09:52:33.428Z,21.36
2024-04-13T09:55:01.745Z,21.44
2024-04-13T09:57:29.690Z,21.52
2024-04-13T09:59:57.733Z,21.54
2024-04-13T10:02:26.163Z,21.52
2024-04-13T10:04:53.986Z,21.58
2024-04-13T10:07:25.253Z,21.73
2024-04-13T10:09:59.358Z,21.95
2024-04-13T10:12:31.328Z,22.13
2024-04-13T10:14:59.681Z,22.26
2024-04-13T10:17:28.241Z,22.19
2024-04-13T10:19:56.415Z,22.15
2024-04-13T10:22:32.056Z,22.03
2024-04-13T10:25:07.344Z,21.87
2024-04-13T10:27:35.883Z,21.81
2024-04-13T10:30:06.921Z,22.11
2024-04-13T10:32:34.626Z,22.50
2024-04-13T10:35:14.922Z,22.81
2024-04-13T10:37:42.604Z,23.16
2024-04-13T10:40:10.208Z,23.25
2024-04-13T10:42:39.572Z,22.98
2024-04-13T10:45:15.394Z,22.97
2024-04-13T10:47:43.625Z,22.96
2024-04-13T10:50:12.905Z,23.01
2024-04-13T10:52:41.131Z,23.05
2024-04-13T10:55:13.051Z,23.28
2024-04-13T10:57:44.303Z,23.47
2024-04-13T11:00:12.357Z,23.24
2024-04-13T11:02:40.239Z,22.88
2024-04-13T11:05:08.545Z,22.81
2024-04-13T11:07:36.985Z,22.82
2024-04-13T11:10:05.295Z,22.78
2024-04-13T11:12:33.005Z,22.59
2024-04-13T11:15:00.818Z,22.53
2024-04-13T11:17:28.770Z,22.82
2024-04-13T11:19:57.045Z,22.91
2024-04-13T11:22:27.878Z,23.00
2024-04-13T11:24:56.908Z,23.37
2024-04-13T11:27:24.916Z,23.48
2024-04-13T11:29:53.281Z,23.39
2024-04-13T11:32:21.124Z,23.14
2024-04-13T11:34:48.816Z,23.11
2024-04-13T11:37:18.884Z,23.10
2024-04-13T11:39:47.567Z,23.14
2024-04-13T11:42:15.769Z,22.89
2024-04-13T11:44:43.737Z,22.92
2024-04-13T11:47:11.547Z,22.98
2024-04-13T11:49:42.000Z,23.22
2024-04-13T11:52:14.379Z,23.05
2024-04-13T11:54:42.840Z,22.98
2024-04-13T11:57:12.078Z,23.12
2024-04-13T11:59:40.541Z,23.17
2024-04-13T12:02:08.208Z,23.28
2024-04-13T12:04:35.926Z,23.43
2024-04-13T12:07:03.937Z,23.56
2024-04-13T12:09:31.658Z,23.66
2024-04-13T12:12:02.701Z,23.88
2024-04-13T12:14:39.849Z,24.01
2024-04-13T12:17:17.719Z,24.05
2024-04-13T12:19:49.192Z,24.11
2024-04-13T12:22:17.251Z,24.27
2024-04-13T12:24:44.990Z,24.26
2024-04-13T12:27:12.706Z,24.21
2024-04-13T12:29:40.830Z,24.50
2024-04-13T12:32:08.562Z,24.67
2024-04-13T12:34:37.230Z,24.77
2024-04-13T12:37:04.948Z,24.78
2024-04-13T12:39:32.715Z,24.49
2024-04-13T12:42:02.656Z,24.33
2024-04-13T12:44:30.851Z,24.22
2024-04-13T12:46:58.772Z,24.19
2024-04-13T12:49:26.539Z,24.32
2024-04-13T12:51:54.452Z,24.32
2024-04-13T12:54:22.130Z,24.44
2024-04-13T12:56:49.826Z,24.68
2024-04-13T12:59:17.604Z,24.84
2024-04-13T13:01:45.351Z,25.09
2024-04-13T13:04:13.261Z,25.23
2024-04-13T13:06:41.149Z,25.29
2024-04-13T13:09:08.903Z,25.38
2024-04-13T13:11:36.564Z,25.62
2024-04-13T13:14:04.728Z,25.48
2024-04-13T13:16:32.376Z,25.58
2024-04-13T13:19:00.048Z,25.46
2024-04-13T13:21:27.897Z,25.26
2024-04-13T13:23:55.674Z,25.31
2024-04-13T13:26:23.458Z,25.41
2024-04-13T13:28:53.151Z,25.45
2024-04-13T13:31:21.635Z,25.44
2024-04-13T13:33:49.325Z,25.44
2024-04-13T13:36:17.350Z,25.51
2024-04-13T13:38:44.980Z,25.73
2024-04-13T13:41:12.559Z,25.88
2024-04-13T13:43:40.144Z,25.95
2024-04-13T13:46:07.779Z,26.01
2024-04-13T13:48:35.752Z,26.29
2024-04-13T13:51:04.060Z,26.61
2024-04-13T13:53:31.701Z,26.64
2024-04-13T13:55:59.412Z,26.70
2024-04-13T13:58:27.116Z,26.81
2024-04-13T14:00:55.372Z,26.81
2024-04-13T14:03:23.442Z,26.24
2024-04-13T14:05:51.207Z,26.04
2024-04-13T14:08:18.898Z,26.02
2024-04-13T14:10:46.573Z,26.26
2024-04-13T14:13:14.293Z,26.59
2024-04-13T14:15:42.393Z,26.67
2024-04-13T14:18:10.149Z,26.74
2024-04-13T14:20:44.673Z,26.67
2024-04-13T14:23:12.927Z,26.62
2024-04-13T14:25:40.724Z,26.42
2024-04-13T14:28:08.469Z,26.20
2024-04-13T14:30:36.375Z,25.82
2024-04-13T14:33:04.492Z,25.76
2024-04-13T14:35:32.617Z,25.67
2024-04-13T14:38:01.227Z,25.16
2024-04-13T14:40:29.049Z,24.76
2024-04-13T14:42:57.345Z,24.54
2024-04-13T14:45:25.377Z,24.52
2024-04-13T14:47:53.083Z,24.50
2024-04-13T14:50:20.752Z,24.57
2024-04-13T14:52:48.565Z,24.74
2024-04-13T14:55:16.807Z,24.67
2024-04-13T14:57:47.120Z,24.53
2024-04-13T15:00:15.295Z,24.37
2024-04-13T15:02:43.644Z,24.06
2024-04-13T15:05:11.439Z,23.66
2024-04-13T15:07:39.322Z,23.40
2024-04-13T15:10:07.592Z,23.36
2024-04-13T15:12:35.439Z,23.32
2024-04-13T15:15:03.288Z,23.37
2024-04-13T15:17:31.613Z,23.44
2024-04-13T15:19:59.422Z,23.52
2024-04-13T15:22:27.065Z,23.74
2024-04-13T15:24:54.912Z,23.91
2024-04-13T15:27:22.609Z,24.05
2024-04-13T15:29:50.206Z,24.19
2024-04-13T15:32:18.400Z,24.27
2024-04-13T15:34:46.183Z,24.33
2024-04-13T15:37:17.254Z,24.24
2024-04-13T15:39:44.926Z,24.28
2024-04-13T15:42:12.587Z,24.19
2024-04-13T15:44:40.285Z,24.15
2024-04-13T15:47:07.943Z,24.13
2024-04-13T15:49:35.551Z,24.27
2024-04-13T15:52:03.312Z,24.32
2024-04-13T15:54:30.973Z,24.29
2024-04-13T15:56:58.629Z,24.28
2024-04-13T15:59:26.821Z,24.23
2024-04-13T16:01:55.920Z,24.17
2024-04-13T16:04:23.691Z,24.10
2024-04-13T16:06:54.527Z,23.96
2024-04-13T16:09:22.278Z,23.91
2024-04-13T16:11:49.935Z,23.76
2024-04-13T16:14:20.368Z,23.59
2024-04-13T16:16:48.514Z,23.54
2024-04-13T16:19:16.426Z,23.63
2024-04-13T16:21:44.425Z,23.50
2024-04-13T16:24:12.059Z,23.40
2024-04-13T16:26:39.773Z,23.24
2024-04-13T16:29:07.732Z,22.93
2024-04-13T16:31:35.358Z,22.59
2024-04-13T16:34:03.250Z,22.41
2024-04-13T16:36:31.169Z,22.14
2024-04-13T16:38:59.203Z,22.04
2024-04-13T16:41:26.958Z,21.92
2024-04-13T16:43:54.704Z,21.78
2024-04-13T16:46:22.538Z,21.67
2024-04-13T16:48:50.242Z,21.53
2024-04-13T16:51:18.139Z,21.41
2024-04-13T16:53:45.826Z,21.28
2024-04-13T16:56:13.509Z,21.14
2024-04-13T16:58:41.474Z,21.03
2024-04-13T17:01:09.342Z,20.92
2024-04-13T17:03:37.119Z,20.82
2024-04-13T17:06:05.156Z,20.72
2024-04-13T17:08:32.856Z,20.68
2024-04-13T17:11:00.522Z,20.64
2024-04-13T17:13:29.045Z,20.58
2024-04-13T17:15:56.793Z,20.47
2024-04-13T17:18:24.627Z,20.38
2024-04-13T17:20:53.396Z,20.30
2024-04-13T17:23:21.377Z,20.21
2024-04-13T17:25:49.047Z,20.10
2024-04-13T17:28:16.707Z,20.02
2024-04-13T17:30:46.987Z,19.95
2024-04-13T17:33:14.822Z,19.87
2024-04-13T17:35:42.464Z,19.80
2024-04-13T17:38:10.133Z,19.70
2024-04-13T17:40:39.129Z,19.66
2024-04-13T17:43:07.081Z,19.58
2024-04-13T17:45:34.896Z,19.49
2024-04-13T17:48:03.711Z,19.41
2024-04-13T17:50:31.347Z,19.34
2024-04-13T17:52:58.914Z,19.26
2024-04-13T17:55:26.935Z,19.21
2024-04-13T17:57:54.623Z,19.16
2024-04-13T18:00:22.254Z,19.10
2024-04-13T18:02:49.998Z,19.04
2024-04-13T18:05:17.636Z,19.01
2024-04-13T18:07:45.305Z,18.99
2024-04-13T18:10:12.954Z,18.96
2024-04-13T18:12:40.722Z,18.93
2024-04-13T18:15:08.486Z,18.89
2024-04-13T18:17:36.129Z,18.86
2024-04-13T18:20:03.948Z,18.85
2024-04-13T18:22:32.737Z,18.82
2024-04-13T18:25:00.393Z,18.78
2024-04-13T18:27:28.481Z,18.78
2024-04-13T18:29:56.539Z,18.75
2024-04-13T18:32:24.195Z,18.73
2024-04-13T18:34:51.824Z,18.72
2024-04-13T18:37:19.468Z,18.70
2024-04-13T18:39:47.068Z,18.66
2024-04-13T18:42:16.446Z,18.63
2024-04-13T18:44:44.296Z,18.62
2024-04-13T18:47:11.977Z,18.59
2024-04-13T18:49:45.212Z,18.55
2024-04-13T18:52:12.852Z,18.51
2024-04-13T18:54:40.547Z,18.44
2024-04-13T18:57:08.269Z,18.35
2024-04-13T18:59:35.843Z,18.31
2024-04-13T19:02:04.264Z,18.29
2024-04-13T19:04:31.992Z,18.28
2024-04-13T19:06:59.647Z,18.26
2024-04-13T19:09:27.366Z,18.21
2024-04-13T19:11:55.338Z,18.13
2024-04-13T19:14:23.065Z,18.04
2024-04-13T19:16:52.075Z,17.98
2024-04-13T19:19:19.914Z,17.94
2024-04-13T19:21:47.837Z,17.89
2024-04-13T19:24:16.530Z,17.85
2024-04-13T19:26:44.358Z,17.82
2024-04-13T19:29:13.266Z,17.79
2024-04-13T19:31:41.157Z,17.74
2024-04-13T19:34:09.930Z,17.70
2024-04-13T19:36:37.890Z,17.65
2024-04-13T19:39:05.660Z,17.60
2024-04-13T19:41:33.229Z,17.55
2024-04-13T19:44:00.901Z,17.49
2024-04-13T19:46:28.724Z,17.43
2024-04-13T19:48:56.507Z,17.36
2024-04-13T19:51:24.296Z,17.29
2024-04-13T19:53:53.667Z,17.23
2024-04-13T19:56:21.322Z,17.15
2024-04-13T19:58:48.930Z,17.09
2024-04-13T20:01:17.022Z,16.98
2024-04-13T20:03:44.921Z,16.92
2024-04-13T20:06:12.683Z,16.89
2024-04-13T20:08:42.906Z,16.84
2024-04-13T20:11:10.684Z,16.77
2024-04-13T20:13:38.418Z,16.70
2024-04-13T20:16:24.942Z,16.61
2024-04-13T20:18:52.703Z,16.54
2024-04-13T20:21:20.565Z,16.49
2024-04-13T20:23:48.229Z,16.43
2024-04-13T20:26:16.208Z,16.39
2024-04-13T20:28:45.148Z,16.34
2024-04-13T20:31:13.879Z,16.29
2024-04-13T20:33:46.336Z,16.24
2024-04-13T20:36:14.185Z,16.18
2024-04-13T20:38:42.423Z,16.13
2024-04-13T20:41:10.221Z,16.09
2024-04-13T20:43:40.793Z,16.04
2024-04-13T20:46:08.752Z,15.98
2024-04-13T20:48:36.412Z,15.94
2024-04-13T20:51:04.351Z,15.91
2024-04-13T20:53:32.110Z,15.89
2024-04-13T20:55:59.924Z,15.85
2024-04-13T20:58:27.894Z,15.79
2024-04-13T21:00:59.837Z,15.76
2024-04-13T21:03:27.754Z,15.72
2024-04-13T21:05:55.467Z,15.68
2024-04-13T21:08:23.118Z,15.64
2024-04-13T21:10:50.751Z,15.60
2024-04-13T21:13:18.362Z,15.56
2024-04-13T21:15:46.056Z,15.53
2024-04-13T21:18:13.861Z,15.50
2024-04-13T21:20:41.471Z,15.47
2024-04-13T21:23:09.111Z,15.46
2024-04-13T21:25:38.584Z,15.45
2024-04-13T21:28:07.808Z,15.37
2024-04-13T21:30:38.667Z,15.30
2024-04-13T21:33:06.567Z,15.25
2024-04-13T21:35:34.335Z,15.22
2024-04-13T21:38:01.991Z,15.19
2024-04-13T21:40:29.675Z,15.16
2024-04-13T21:42:57.906Z,15.15
2024-04-13T21:45:25.540Z,15.11
2024-04-13T21:47:53.236Z,15.08
2024-04-13T21:50:21.095Z,15.03
2024-04-13T21:52:48.821Z,14.95
2024-04-13T21:55:16.880Z,14.97
2024-04-13T21:57:44.708Z,15.05
2024-04-13T22:00:15.449Z,15.11
2024-04-13T22:02:43.102Z,15.13
2024-04-13T22:05:10.780Z,15.16
2024-04-13T22:07:38.494Z,15.09
2024-04-13T22:10:06.518Z,15.01
2024-04-13T22:12:34.208Z,14.93
2024-04-13T22:15:01.824Z,14.80
2024-04-13T22:17:29.496Z,14.74
2024-04-13T22:19:57.092Z,14.71
2024-04-13T22:22:24.797Z,14.70
2024-04-13T22:24:52.479Z,14.68
2024-04-13T22:27:20.218Z,14.62
2024-04-13T22:29:48.357Z,14.56
2024-04-13T22:32:16.038Z,14.52
2024-04-13T22:34:43.678Z,14.50
2024-04-13T22:37:11.385Z,14.48
2024-04-13T22:39:39.135Z,14.46
2024-04-13T22:42:07.390Z,14.41
2024-04-13T22:44:35.125Z,14.37
2024-04-13T22:47:02.872Z,14.36
2024-04-13T22:49:30.974Z,14.32
2024-04-13T22:51:58.684Z,14.31
2024-04-13T22:54:26.429Z,14.27
2024-04-13T22:56:54.238Z,14.28
2024-04-13T22:59:22.111Z,14.37
2024-04-13T23:01:50.934Z,14.44
2024-04-13T23:04:18.755Z,14.51
2024-04-13T23:06:46.535Z,14.51
2024-04-13T23:09:14.294Z,14.48
2024-04-13T23:11:41.985Z,14.49
2024-04-13T23:14:10.891Z,14.49
2024-04-13T23:16:38.628Z,14.51
2024-04-13T23:19:06.525Z,14.53
2024-04-13T23:21:36.948Z,14.50
2024-04-13T23:24:04.807Z,14.46
2024-04-13T23:26:32.918Z,14.43
2024-04-13T23:29:01.069Z,14.44
2024-04-13T23:31:29.793Z,14.42
2024-04-13T23:33:57.554Z,14.35
2024-04-13T23:36:25.205Z,14.34
2024-04-13T23:38:52.863Z,14.29
2024-04-13T23:41:20.708Z,14.29
2024-04-13T23:43:48.921Z,14.25
2024-04-13T23:46:16.825Z,14.22
2024-04-13T23:48:44.659Z,14.21
2024-04-13T23:51:12.530Z,14.17
2024-04-13T23:53:40.181Z,14.11
2024-04-13T23:56:08.682Z,14.03
2024-04-13T23:58:36.253Z,14.00
